createdAt,value
2023-08-29T00:02:33.951Z,100359.04
2023-08-29T00:07:43.798Z,100335.82
2023-08-29T00:12:52.269Z,100312.29
2023-08-29T00:18:01.505Z,100294.05
2023-08-29T00:23:11.853Z,100279.90
2023-08-29T00:28:20.755Z,100244.09
2023-08-29T00:33:28.914Z,100208.11
2023-08-29T00:38:37.105Z,100222.25
2023-08-29T00:43:45.486Z,100251.75
2023-08-29T00:48:54.171Z,100282.92
2023-08-29T00:54:03.302Z,100305.33
2023-08-29T00:59:11.592Z,100315.90
2023-08-29T01:04:20.976Z,100319.90
2023-08-29T01:09:29.784Z,100327.61
2023-08-29T01:14:43.052Z,100337.13
2023-08-29T01:19:55.309Z,100334.77
2023-08-29T01:25:14.522Z,100308.91
2023-08-29T01:30:24.036Z,100297.74
2023-08-29T01:35:32.813Z,100273.16
2023-08-29T01:40:41.032Z,100248.57
2023-08-29T01:45:49.874Z,100244.30
2023-08-29T01:50:58.348Z,100250.64
2023-08-29T01:56:09.790Z,100262.23
2023-08-29T02:01:23.420Z,100289.17
2023-08-29T02:06:34.389Z,100327.15
2023-08-29T02:11:42.667Z,100382.92
2023-08-29T02:16:50.946Z,100400.61
2023-08-29T02:21:59.131Z,100352.38
2023-08-29T02:27:07.977Z,100345.40
2023-08-29T02:32:16.688Z,100350.38
2023-08-29T02:37:25.688Z,100358.38
2023-08-29T02:42:33.906Z,100313.28
2023-08-29T02:47:42.838Z,100254.80
2023-08-29T02:52:51.063Z,100146.95
2023-08-29T02:58:00.074Z,100036.56
2023-08-29T03:03:08.758Z,100041.41
2023-08-29T03:08:17.073Z,100063.34
2023-08-29T03:13:26.111Z,100084.01
2023-08-29T03:18:34.653Z,100068.92
2023-08-29T03:23:42.861Z,100069.89
2023-08-29T03:28:52.061Z,100062.71
2023-08-29T03:34:00.268Z,100058.76
2023-08-29T03:39:09.018Z,100055.50
2023-08-29T03:44:17.212Z,100035.52
2023-08-29T03:49:26.330Z,100018.73
2023-08-29T03:54:34.822Z,100017.99
2023-08-29T03:59:43.309Z,99984.83
2023-08-29T04:04:55.102Z,99962.50
2023-08-29T04:10:04.990Z,99969.81
2023-08-29T04:15:13.813Z,99996.89
2023-08-29T04:20:22.927Z,100006.95
2023-08-29T04:25:31.165Z,100015.59
2023-08-29T04:30:39.676Z,100007.72
2023-08-29T04:35:51.084Z,100008.73
2023-08-29T04:40:59.295Z,99994.59
2023-08-29T04:46:08.827Z,99983.70
2023-08-29T04:51:17.376Z,99982.85
2023-08-29T04:56:25.981Z,99968.27
2023-08-29T05:01:34.216Z,99951.27
2023-08-29T05:06:42.410Z,99952.60
2023-08-29T05:11:50.630Z,99936.42
2023-08-29T05:16:58.957Z,99923.47
2023-08-29T05:22:07.644Z,99957.62
2023-08-29T05:27:15.829Z,99967.02
2023-08-29T05:32:26.607Z,99971.02
2023-08-29T05:37:35.840Z,99972.87
2023-08-29T05:42:44.018Z,99974.05
2023-08-29T05:47:52.545Z,99996.61
2023-08-29T05:53:01.224Z,100012.66
2023-08-29T05:58:10.275Z,100027.01
2023-08-29T06:03:20.604Z,100040.70
2023-08-29T06:08:31.417Z,100062.35
2023-08-29T06:13:40.013Z,100055.05
2023-08-29T06:18:48.641Z,100031.21
2023-08-29T06:23:57.316Z,100029.15
2023-08-29T06:29:06.578Z,100029.23
2023-08-29T06:34:14.836Z,100024.87
2023-08-29T06:39:23.222Z,100018.86
2023-08-29T06:44:31.502Z,100029.30
2023-08-29T06:49:39.725Z,100025.13
2023-08-29T06:54:48.248Z,100015.77
2023-08-29T06:59:56.497Z,99992.93
2023-08-29T07:05:06.129Z,99966.77
2023-08-29T07:10:14.697Z,99973.06
2023-08-29T07:15:24.082Z,99998.08
2023-08-29T07:20:32.692Z,99993.55
2023-08-29T07:25:42.936Z,99996.23
2023-08-29T07:30:52.756Z,100006.50
2023-08-29T07:36:01.058Z,100005.71
2023-08-29T07:41:09.306Z,99998.23
2023-08-29T07:46:17.725Z,100002.11
2023-08-29T07:51:26.312Z,100021.81
2023-08-29T07:56:35.546Z,100032.85
2023-08-29T08:01:44.011Z,100017.80
2023-08-29T08:06:52.216Z,100005.46
2023-08-29T08:12:01.806Z,99994.15
2023-08-29T08:17:10.027Z,99988.71
2023-08-29T08:22:18.330Z,99989.82
2023-08-29T08:27:26.551Z,100005.88
2023-08-29T08:32:34.728Z,100017.73
2023-08-29T08:37:42.941Z,100010.53
2023-08-29T08:42:51.112Z,100002.73
2023-08-29T08:48:00.190Z,99993.06
2023-08-29T08:53:11.879Z,99992.81
2023-08-29T08:58:21.036Z,99994.30
2023-08-29T09:03:29.261Z,100013.30
2023-08-29T09:08:38.350Z,100021.41
2023-08-29T09:13:51.179Z,100019.86
2023-08-29T09:18:59.998Z,100032.69
2023-08-29T09:24:10.680Z,100032.45
2023-08-29T09:29:22.892Z,100028.04
2023-08-29T09:34:32.906Z,100032.10
2023-08-29T09:39:41.351Z,100031.11
2023-08-29T09:44:52.406Z,100040.49
2023-08-29T09:50:00.681Z,100037.34
2023-08-29T09:55:14.223Z,100024.29
2023-08-29T10:00:24.272Z,100029.98
2023-08-29T10:05:37.466Z,100032.77
2023-08-29T10:10:46.694Z,100024.09
2023-08-29T10:15:55.969Z,100022.20
2023-08-29T10:21:06.341Z,100032.58
2023-08-29T10:26:15.388Z,100029.20
2023-08-29T10:31:23.975Z,100012.40
2023-08-29T10:36:32.723Z,100017.08
2023-08-29T10:41:50.199Z,100016.77
2023-08-29T10:47:20.779Z,100017.25
2023-08-29T10:52:39.014Z,100015.73
2023-08-29T10:57:47.452Z,99998.03
2023-08-29T11:02:58.267Z,99992.02
2023-08-29T11:08:31.335Z,99988.35
2023-08-29T11:13:57.947Z,99988.17
2023-08-29T11:19:15.010Z,99983.62
2023-08-29T11:24:24.671Z,100000.07
2023-08-29T11:29:40.041Z,100013.91
2023-08-29T11:34:53.085Z,100010.84
2023-08-29T11:40:07.552Z,100024.42
2023-08-29T11:45:45.220Z,100011.84
2023-08-29T11:50:48.390Z,100000.66
2023-08-29T11:55:56.680Z,99998.22
2023-08-29T12:01:08.522Z,99994.17
2023-08-29T12:06:17.484Z,99988.66
2023-08-29T12:11:26.038Z,99989.33
2023-08-29T12:16:34.595Z,99989.34
2023-08-29T12:21:43.296Z,99994.19
2023-08-29T12:26:51.528Z,99997.40
2023-08-29T12:32:00.127Z,100016.63
2023-08-29T12:37:08.948Z,100027.48
2023-08-29T12:42:17.450Z,100025.42
2023-08-29T12:47:25.675Z,100028.84
2023-08-29T12:52:34.048Z,100016.90
2023-08-29T12:57:42.304Z,100007.31
2023-08-29T13:02:50.999Z,100010.91
2023-08-29T13:07:59.500Z,100014.23
2023-08-29T13:13:08.349Z,100004.71
2023-08-29T13:18:16.711Z,99995.88
2023-08-29T13:23:25.040Z,99991.45
2023-08-29T13:28:33.327Z,99991.18
2023-08-29T13:33:41.577Z,99986.12
2023-08-29T13:38:49.894Z,99981.20
2023-08-29T13:43:58.351Z,99997.52
2023-08-29T13:49:07.299Z,100007.77
2023-08-29T13:54:15.842Z,100008.48
2023-08-29T13:59:24.057Z,99997.95
2023-08-29T14:04:32.390Z,99996.00
2023-08-29T14:09:41.274Z,99995.62
2023-08-29T14:14:49.449Z,99989.17
2023-08-29T14:19:58.397Z,99974.86
2023-08-29T14:25:07.646Z,99969.00
2023-08-29T14:30:16.331Z,99978.42
2023-08-29T14:35:24.396Z,99971.08
2023-08-29T14:40:32.437Z,99966.09
2023-08-29T14:45:45.703Z,99985.45
2023-08-29T14:50:53.754Z,99996.50
2023-08-29T14:56:03.807Z,100006.02
2023-08-29T15:01:11.993Z,100024.85
2023-08-29T15:06:20.076Z,100025.89
2023-08-29T15:11:28.966Z,100019.83
2023-08-29T15:16:37.595Z,100012.27
2023-08-29T15:21:45.654Z,100011.86
2023-08-29T15:26:53.696Z,100013.50
2023-08-29T15:32:01.745Z,100009.69
2023-08-29T15:37:09.768Z,100005.23
2023-08-29T15:42:17.996Z,100001.08
2023-08-29T15:47:26.184Z,99988.77
2023-08-29T15:52:34.632Z,99975.07
2023-08-29T15:57:43.420Z,99962.42
2023-08-29T16:02:54.141Z,99957.57
2023-08-29T16:08:03.538Z,99956.30
2023-08-29T16:13:11.999Z,99963.17
2023-08-29T16:18:20.199Z,99966.37
2023-08-29T16:23:28.654Z,99963.70
2023-08-29T16:28:36.666Z,99967.80
2023-08-29T16:33:44.711Z,99982.73
2023-08-29T16:38:53.338Z,99983.53
2023-08-29T16:44:01.727Z,99981.95
2023-08-29T16:49:09.808Z,99981.40
2023-08-29T16:54:19.259Z,99984.95
2023-08-29T16:59:27.623Z,99988.38
2023-08-29T17:04:35.662Z,99986.19
2023-08-29T17:09:44.976Z,99980.81
2023-08-29T17:14:54.589Z,99972.64
2023-08-29T17:20:02.679Z,99971.61
2023-08-29T17:25:12.484Z,99958.20
2023-08-29T17:30:22.090Z,99954.46
2023-08-29T17:35:30.456Z,99960.36
2023-08-29T17:40:38.861Z,99964.11
2023-08-29T17:45:55.254Z,99964.25
2023-08-29T17:51:03.745Z,99963.22
2023-08-29T17:56:11.783Z,99962.02
2023-08-29T18:01:20.008Z,99973.07
2023-08-29T18:06:28.489Z,99977.86
2023-08-29T18:11:37.186Z,99980.42
2023-08-29T18:16:46.862Z,99977.58
2023-08-29T18:21:55.006Z,99989.40
2023-08-29T18:27:03.196Z,99993.73
2023-08-29T18:32:11.369Z,99996.63
2023-08-29T18:37:19.427Z,99992.28
2023-08-29T18:42:27.675Z,100000.06
2023-08-29T18:47:36.105Z,100010.73
2023-08-29T18:52:44.758Z,100020.04
2023-08-29T18:57:52.902Z,100021.62
2023-08-29T19:03:01.527Z,100017.27
2023-08-29T19:08:10.116Z,100012.96
2023-08-29T19:13:18.564Z,100007.27
2023-08-29T19:18:27.033Z,100027.75
2023-08-29T19:23:35.037Z,100024.90
2023-08-29T19:28:43.076Z,100029.84
2023-08-29T19:33:51.088Z,100026.95
2023-08-29T19:39:12.189Z,100023.17
2023-08-29T19:44:26.251Z,100008.59
2023-08-29T19:49:40.245Z,99998.85
2023-08-29T19:54:48.309Z,99986.30
2023-08-29T19:59:56.384Z,99974.77
2023-08-29T20:05:06.341Z,99956.14
2023-08-29T20:10:14.771Z,99944.83
2023-08-29T20:15:22.796Z,99942.77
2023-08-29T20:20:31.050Z,99938.59
2023-08-29T20:25:39.466Z,99936.89
2023-08-29T20:30:47.520Z,99936.93
2023-08-29T20:35:55.530Z,99931.93
2023-08-29T20:41:03.944Z,99917.84
2023-08-29T20:46:12.049Z,99903.67
2023-08-29T20:51:20.278Z,99913.14
2023-08-29T20:56:28.886Z,99925.31
2023-08-29T21:01:36.914Z,99931.95
2023-08-29T21:06:44.973Z,99933.61
2023-08-29T21:11:53.830Z,99944.65
2023-08-29T21:17:01.925Z,99940.36
2023-08-29T21:22:10.304Z,99945.46
2023-08-29T21:27:18.339Z,99961.23
2023-08-29T21:32:26.334Z,99968.38
2023-08-29T21:37:34.412Z,99976.69
2023-08-29T21:42:42.445Z,99982.06
2023-08-29T21:47:52.793Z,99992.08
2023-08-29T21:53:00.824Z,99996.59
2023-08-29T21:58:11.898Z,99995.44
2023-08-29T22:03:21.168Z,99992.96
2023-08-29T22:08:29.828Z,99977.89
2023-08-29T22:13:37.930Z,99968.16
2023-08-29T22:18:45.994Z,99965.27
2023-08-29T22:23:54.464Z,99962.51
2023-08-29T22:29:02.916Z,99959.36
2023-08-29T22:34:11.066Z,99959.64
2023-08-29T22:39:19.095Z,99968.80
2023-08-29T22:44:27.222Z,99953.00
2023-08-29T22:49:36.087Z,99928.78
2023-08-29T22:54:44.085Z,99918.89
2023-08-29T22:59:52.138Z,99915.93
2023-08-29T23:05:00.159Z,99915.55
2023-08-29T23:10:09.691Z,99907.63
2023-08-29T23:15:18.121Z,99908.21
2023-08-29T23:20:26.163Z,99907.61
2023-08-29T23:25:34.804Z,99909.66
2023-08-29T23:30:42.952Z,99905.64
2023-08-29T23:35:51.420Z,99903.05
2023-08-29T23:41:00.220Z,99915.38
2023-08-29T23:46:08.458Z,99926.11
2023-08-29T23:51:16.760Z,99923.45
2023-08-29T23:56:24.855Z,99921.27
